Time;durP1;ratioP1;P1;durP2;ratioP2;P2;SDS_P1;SDS_P2;PMS_P1;PMS_P2;Temp;Humidity;BMP_temperature;BMP_pressure;BME280_temperature;BME280_humidity;BME280_pressure;Samples;Min_cycle;Max_cycle;Signal;HPM_P1;HPM_P2
2023/12/06 00:03:45;;;;;;;23.13;11.73;;;;;;;;;;10446619;28;20502;-72
2023/12/06 00:08:45;;;;;;;34.30;17.40;;;;;;;;;;10447023;28;20176;-72
2023/12/06 00:13:46;;;;;;;34.77;17.40;;;;;;;;;;10453142;28;20207;-72
2023/12/06 00:18:48;;;;;;;38.63;20.30;;;;;;;;;;10446549;28;20180;-72
2023/12/06 00:23:48;;;;;;;40.47;21.63;;;;;;;;;;10446665;28;20399;-72
2023/12/06 00:28:48;;;;;;;38.33;19.33;;;;;;;;;;10451024;28;20439;-72
2023/12/06 00:33:48;;;;;;;32.73;16.40;;;;;;;;;;10447466;28;20265;-72
2023/12/06 00:38:48;;;;;;;44.23;22.80;;;;;;;;;;10449628;28;20228;-72
2023/12/06 00:43:51;;;;;;;45.53;22.20;;;;;;;;;;10459392;28;20266;-72
2023/12/06 00:48:51;;;;;;;38.27;17.27;;;;;;;;;;10466424;28;20188;-72
2023/12/06 00:53:51;;;;;;;48.93;23.03;;;;;;;;;;10458970;28;20193;-72
2023/12/06 00:58:51;;;;;;;33.07;16.47;;;;;;;;;;10459943;28;20188;-73
2023/12/06 01:03:52;;;;;;;39.50;21.43;;;;;;;;;;10457713;28;20214;-72
2023/12/06 01:08:52;;;;;;;47.77;24.33;;;;;;;;;;10465839;28;20184;-72
2023/12/06 01:13:52;;;;;;;34.07;12.57;;;;;;;;;;10459035;28;20434;-72
2023/12/06 01:18:52;;;;;;;45.87;21.60;;;;;;;;;;10459080;28;20267;-72
2023/12/06 01:23:53;;;;;;;38.53;17.40;;;;;;;;;;10459300;28;20188;-72
2023/12/06 01:28:54;;;;;;;40.60;18.80;;;;;;;;;;10464844;28;20266;-72
2023/12/06 01:33:54;;;;;;;55.73;26.30;;;;;;;;;;10458693;28;20187;-72
2023/12/06 01:38:54;;;;;;;55.63;25.70;;;;;;;;;;10458671;28;20507;-72
2023/12/06 01:43:54;;;;;;;44.23;20.33;;;;;;;;;;10458422;28;20192;-72
2023/12/06 01:48:55;;;;;;;46.70;22.13;;;;;;;;;;10464497;28;20188;-72
2023/12/06 01:53:56;;;;;;;54.07;24.00;;;;;;;;;;10450691;28;20450;-72
2023/12/06 01:58:56;;;;;;;54.93;24.33;;;;;;;;;;10451005;28;20239;-72
2023/12/06 02:03:56;;;;;;;54.00;23.37;;;;;;;;;;10455133;28;20892;-72
2023/12/06 02:08:58;;;;;;;49.20;23.47;;;;;;;;;;10450878;28;20997;-72
2023/12/06 02:13:58;;;;;;;51.27;24.50;;;;;;;;;;10453729;28;20822;-72
2023/12/06 02:18:58;;;;;;;52.00;23.73;;;;;;;;;;10449807;28;20189;-72
2023/12/06 02:23:59;;;;;;;50.78;23.17;;;;;;;;;;10456986;28;20196;-72
2023/12/06 02:28:59;;;;;;;49.23;24.10;;;;;;;;;;10451381;28;20216;-72
2023/12/06 02:34:01;;;;;;;50.10;23.73;;;;;;;;;;10449401;28;20438;-72
2023/12/06 02:39:02;;;;;;;55.13;25.93;;;;;;;;;;10448691;28;20263;-72
2023/12/06 02:44:02;;;;;;;53.07;23.60;;;;;;;;;;10455452;28;20798;-72
2023/12/06 02:49:02;;;;;;;58.37;25.63;;;;;;;;;;10452766;28;20692;-72
2023/12/06 02:54:02;;;;;;;49.63;22.83;;;;;;;;;;10452466;28;20504;-72
2023/12/06 02:59:03;;;;;;;51.05;21.95;;;;;;;;;;10447442;28;20195;-72
2023/12/06 03:04:05;;;;;;;49.87;22.83;;;;;;;;;;10457532;28;20562;-72
2023/12/06 03:09:05;;;;;;;49.80;22.33;;;;;;;;;;10457385;28;20565;-72
2023/12/06 03:14:05;;;;;;;53.67;25.17;;;;;;;;;;10447496;28;20657;-72
2023/12/06 03:19:06;;;;;;;49.93;21.77;;;;;;;;;;10450706;28;20438;-72
2023/12/06 03:24:06;;;;;;;52.33;24.33;;;;;;;;;;10456794;28;20554;-71
2023/12/06 03:29:06;;;;;;;44.37;20.20;;;;;;;;;;10450245;28;20599;-71
2023/12/06 03:34:06;;;;;;;36.83;19.47;;;;;;;;;;10449732;28;20208;-72
2023/12/06 03:39:07;;;;;;;37.33;16.30;;;;;;;;;;10456436;28;20679;-72
2023/12/06 03:44:07;;;;;;;32.47;17.83;;;;;;;;;;10441725;28;20195;-72
2023/12/06 03:49:08;;;;;;;27.57;13.83;;;;;;;;;;10445396;28;20565;-72
2023/12/06 03:54:08;;;;;;;27.13;15.73;;;;;;;;;;10449435;28;20203;-72
2023/12/06 03:59:09;;;;;;;34.87;19.80;;;;;;;;;;10455374;28;20540;-72
2023/12/06 04:04:09;;;;;;;42.22;23.50;;;;;;;;;;10448754;28;20188;-72
2023/12/06 04:09:12;;;;;;;33.80;18.37;;;;;;;;;;10449127;28;20191;-72
2023/12/06 04:14:13;;;;;;;42.63;23.73;;;;;;;;;;10447385;28;20199;-72
2023/12/06 04:19:13;;;;;;;45.40;22.23;;;;;;;;;;10455537;28;20680;-72
2023/12/06 04:24:13;;;;;;;43.27;21.70;;;;;;;;;;10447724;28;20203;-72
2023/12/06 04:29:13;;;;;;;41.17;18.63;;;;;;;;;;10448765;28;20330;-72
2023/12/06 04:34:14;;;;;;;36.10;16.27;;;;;;;;;;10448280;28;20606;-72
2023/12/06 04:39:14;;;;;;;41.20;20.43;;;;;;;;;;10454198;28;20604;-72
2023/12/06 04:44:14;;;;;;;39.17;19.27;;;;;;;;;;10447997;28;20688;-72
2023/12/06 04:49:14;;;;;;;44.07;20.40;;;;;;;;;;10450332;28;20286;-72
2023/12/06 04:54:15;;;;;;;37.77;20.30;;;;;;;;;;10444917;28;20211;-72
2023/12/06 04:59:15;;;;;;;39.93;20.50;;;;;;;;;;10452979;28;20585;-72
2023/12/06 05:04:15;;;;;;;36.73;18.73;;;;;;;;;;10452765;28;20443;-72
2023/12/06 05:09:16;;;;;;;32.27;18.40;;;;;;;;;;10447588;28;20195;-72
2023/12/06 05:14:16;;;;;;;33.53;18.57;;;;;;;;;;10453443;28;20219;-72
2023/12/06 05:19:17;;;;;;;21.23;11.07;;;;;;;;;;10447643;28;20184;-72
2023/12/06 05:24:17;;;;;;;31.47;15.70;;;;;;;;;;10458860;28;20191;-73
2023/12/06 05:29:17;;;;;;;30.23;16.83;;;;;;;;;;10470387;28;20248;-72
2023/12/06 05:34:19;;;;;;;19.83;11.57;;;;;;;;;;10475589;28;20214;-72
2023/12/06 05:39:19;;;;;;;26.47;15.17;;;;;;;;;;10468914;28;21097;-72
2023/12/06 05:44:19;;;;;;;30.03;14.00;;;;;;;;;;10466269;28;20620;-72
2023/12/06 05:49:19;;;;;;;20.03;11.97;;;;;;;;;;10471822;28;20283;-72
2023/12/06 05:54:22;;;;;;;27.40;15.73;;;;;;;;;;10486645;28;20233;-73
2023/12/06 05:59:22;;;;;;;30.27;16.87;;;;;;;;;;10459694;28;20190;-72
2023/12/06 06:04:23;;;;;;;28.30;15.97;;;;;;;;;;10462059;28;20190;-72
2023/12/06 06:09:23;;;;;;;30.83;17.33;;;;;;;;;;10456416;28;20645;-72
2023/12/06 06:14:23;;;;;;;31.03;17.23;;;;;;;;;;10438218;28;20212;-72
2023/12/06 06:19:23;;;;;;;29.63;16.90;;;;;;;;;;10469780;28;20199;-72
2023/12/06 06:24:26;;;;;;;33.43;18.00;;;;;;;;;;10473534;28;20237;-72
2023/12/06 06:29:27;;;;;;;32.17;16.07;;;;;;;;;;10474248;28;20195;-72
2023/12/06 06:34:27;;;;;;;33.50;17.20;;;;;;;;;;10467951;28;20243;-72
2023/12/06 06:39:28;;;;;;;28.20;16.40;;;;;;;;;;10457372;28;21504;-72
2023/12/06 06:44:30;;;;;;;47.53;21.17;;;;;;;;;;10444092;28;20187;-72
2023/12/06 06:49:30;;;;;;;28.27;15.93;;;;;;;;;;10430828;28;20665;-72
2023/12/06 06:54:30;;;;;;;29.97;16.00;;;;;;;;;;10436787;28;20212;-72
2023/12/06 06:59:30;;;;;;;33.97;18.47;;;;;;;;;;10450026;28;20184;-72
2023/12/06 07:04:31;;;;;;;27.87;12.47;;;;;;;;;;10446598;28;20649;-72
2023/12/06 07:09:31;;;;;;;32.43;17.60;;;;;;;;;;10459341;28;20568;-72
2023/12/06 07:14:32;;;;;;;40.93;19.30;;;;;;;;;;10463048;28;20211;-72
2023/12/06 07:19:32;;;;;;;27.23;13.67;;;;;;;;;;10469072;28;20275;-72
2023/12/06 07:24:32;;;;;;;34.70;19.17;;;;;;;;;;10469019;28;20705;-72
2023/12/06 07:29:32;;;;;;;24.53;12.10;;;;;;;;;;10468980;28;20195;-72
2023/12/06 07:34:33;;;;;;;35.23;15.30;;;;;;;;;;10455981;28;20214;-72
2023/12/06 07:39:33;;;;;;;39.73;18.93;;;;;;;;;;10458597;28;20219;-72
2023/12/06 07:44:34;;;;;;;38.27;20.40;;;;;;;;;;10466261;28;20717;-72
2023/12/06 07:49:34;;;;;;;37.43;18.00;;;;;;;;;;10453235;28;20188;-71
2023/12/06 07:54:34;;;;;;;42.27;22.00;;;;;;;;;;10464088;28;20253;-72
2023/12/06 07:59:34;;;;;;;38.07;18.73;;;;;;;;;;10466836;28;20740;-72
2023/12/06 08:04:34;;;;;;;32.43;16.67;;;;;;;;;;10469991;28;20195;-72
2023/12/06 08:09:35;;;;;;;48.50;24.77;;;;;;;;;;10460138;28;20188;-72
2023/12/06 08:14:35;;;;;;;44.53;22.77;;;;;;;;;;10462521;28;20196;-72
2023/12/06 08:19:35;;;;;;;40.13;18.17;;;;;;;;;;10469763;28;20534;-72
2023/12/06 08:24:35;;;;;;;37.27;19.20;;;;;;;;;;10458229;28;20192;-72
2023/12/06 08:29:35;;;;;;;41.53;23.03;;;;;;;;;;10453792;28;20192;-72
2023/12/06 08:34:36;;;;;;;28.53;14.70;;;;;;;;;;10438965;28;20204;-72
2023/12/06 08:39:36;;;;;;;38.60;22.10;;;;;;;;;;10452876;28;20231;-72
2023/12/06 08:44:36;;;;;;;32.37;17.90;;;;;;;;;;10449164;28;20550;-73
2023/12/06 08:49:39;;;;;;;29.50;15.93;;;;;;;;;;10464806;28;20232;-73
2023/12/06 08:54:40;;;;;;;19.50;10.47;;;;;;;;;;10457989;28;20219;-73
2023/12/06 08:59:40;;;;;;;27.00;14.23;;;;;;;;;;10479822;28;20188;-73
2023/12/06 09:04:40;;;;;;;29.23;16.23;;;;;;;;;;10470013;28;20502;-73
2023/12/06 09:09:41;;;;;;;22.80;12.37;;;;;;;;;;10473321;28;20302;-72
2023/12/06 09:14:41;;;;;;;24.40;12.93;;;;;;;;;;10480017;28;20473;-73
2023/12/06 09:19:41;;;;;;;22.13;12.07;;;;;;;;;;10472843;28;20266;-73
2023/12/06 09:24:43;;;;;;;20.43;12.07;;;;;;;;;;10466836;28;20221;-73
2023/12/06 09:29:45;;;;;;;20.57;12.13;;;;;;;;;;10481617;28;20215;-73
2023/12/06 09:34:45;;;;;;;24.20;14.60;;;;;;;;;;10463274;28;20842;-73
2023/12/06 09:39:45;;;;;;;19.33;12.50;;;;;;;;;;10468699;28;20220;-73
2023/12/06 09:44:45;;;;;;;20.07;11.60;;;;;;;;;;10458184;28;20649;-73
2023/12/06 09:49:46;;;;;;;15.47;9.93;;;;;;;;;;10482417;28;20195;-73
2023/12/06 10:00:33;;;;;;;13.27;8.23;;;;;;;;;;10422735;28;20205;-74
2023/12/06 10:05:33;;;;;;;14.60;9.63;;;;;;;;;;10448406;28;20184;-74
2023/12/06 10:10:57;;;;;;;13.90;8.97;;;;;;;;;;10469981;28;20590;-71
2023/12/06 10:15:57;;;;;;;16.87;9.27;;;;;;;;;;10451467;28;20246;-74
2023/12/06 10:20:58;;;;;;;15.63;9.47;;;;;;;;;;10449170;28;20194;-74
2023/12/06 10:25:58;;;;;;;15.40;8.33;;;;;;;;;;10457895;28;20199;-74
2023/12/06 10:31:00;;;;;;;17.63;12.40;;;;;;;;;;10460571;28;20223;-74
2023/12/06 10:36:01;;;;;;;14.53;8.67;;;;;;;;;;10479928;28;20222;-73
2023/12/06 10:41:02;;;;;;;16.73;10.30;;;;;;;;;;10465475;28;20947;-73
2023/12/06 10:46:03;;;;;;;15.97;9.00;;;;;;;;;;10478310;28;20188;-71
2023/12/06 10:57:18;;;;;;;17.33;10.47;;;;;;;;;;10461284;28;20227;-73
2023/12/06 11:02:18;;;;;;;12.07;7.33;;;;;;;;;;10462914;28;20196;-73
2023/12/06 11:07:25;;;;;;;14.60;8.60;;;;;;;;;;10468342;28;20192;-73
2023/12/06 11:12:32;;;;;;;13.77;8.37;;;;;;;;;;10459162;28;20302;-73
2023/12/06 11:17:51;;;;;;;13.03;8.27;;;;;;;;;;10443177;28;20239;-73
2023/12/06 11:22:51;;;;;;;10.73;6.77;;;;;;;;;;10464627;28;20276;-73
2023/12/06 11:27:52;;;;;;;10.57;6.57;;;;;;;;;;10455611;28;20260;-73
2023/12/06 11:32:55;;;;;;;12.50;6.50;;;;;;;;;;10457745;28;20191;-73
2023/12/06 11:37:55;;;;;;;12.43;7.53;;;;;;;;;;10462982;28;20306;-73
2023/12/06 11:42:56;;;;;;;11.90;6.80;;;;;;;;;;10472830;28;20184;-72
2023/12/06 11:47:57;;;;;;;11.00;7.20;;;;;;;;;;10462976;28;20510;-73
2023/12/06 11:53:00;;;;;;;15.37;8.33;;;;;;;;;;10463263;28;20316;-73
2023/12/06 11:58:07;;;;;;;7.77;6.43;;;;;;;;;;10482360;28;20211;-73
2023/12/06 12:03:11;;;;;;;11.27;6.83;;;;;;;;;;10463935;28;20195;-73
2023/12/06 12:08:18;;;;;;;10.40;6.17;;;;;;;;;;10473680;28;20195;-73
2023/12/06 12:13:53;;;;;;;9.13;5.80;;;;;;;;;;10472368;28;20207;-72
2023/12/06 12:18:53;;;;;;;10.00;6.27;;;;;;;;;;10463252;28;20239;-73
2023/12/06 12:24:25;;;;;;;9.70;5.70;;;;;;;;;;10464003;28;20203;-70
2023/12/06 12:29:25;;;;;;;8.27;6.10;;;;;;;;;;10463139;28;20441;-73
2023/12/06 12:34:26;;;;;;;7.27;5.10;;;;;;;;;;10458105;28;20711;-73
2023/12/06 12:39:26;;;;;;;9.07;6.03;;;;;;;;;;10475441;28;21121;-73
2023/12/06 12:44:26;;;;;;;6.77;5.20;;;;;;;;;;10465391;28;20195;-73
2023/12/06 12:49:26;;;;;;;8.20;5.40;;;;;;;;;;10463567;28;20538;-73
2023/12/06 12:54:27;;;;;;;40.40;24.10;;;;;;;;;;10447739;28;20488;-73
2023/12/06 12:59:30;;;;;;;12.77;7.40;;;;;;;;;;10442935;28;21016;-73
2023/12/06 13:04:30;;;;;;;11.43;8.37;;;;;;;;;;10444761;28;20896;-73
2023/12/06 13:09:31;;;;;;;9.77;6.38;;;;;;;;;;10450990;28;20188;-73
2023/12/06 13:14:31;;;;;;;13.03;8.20;;;;;;;;;;10444339;28;20215;-73
2023/12/06 13:19:31;;;;;;;10.40;6.83;;;;;;;;;;10445702;28;20291;-73
2023/12/06 13:24:31;;;;;;;9.73;6.37;;;;;;;;;;10444270;28;20275;-71
2023/12/06 13:29:31;;;;;;;9.60;6.13;;;;;;;;;;10469967;28;20179;-72
2023/12/06 13:34:31;;;;;;;9.80;6.37;;;;;;;;;;10474369;28;20215;-72
2023/12/06 13:39:32;;;;;;;8.70;6.10;;;;;;;;;;10465884;28;20615;-72
2023/12/06 13:44:33;;;;;;;10.70;6.10;;;;;;;;;;10446550;28;20287;-73
2023/12/06 13:49:33;;;;;;;8.33;5.83;;;;;;;;;;10471785;28;20184;-72
2023/12/06 13:54:38;;;;;;;11.70;7.27;;;;;;;;;;10465058;28;20229;-73
2023/12/06 13:59:39;;;;;;;26.60;13.17;;;;;;;;;;10454805;28;20211;-72
2023/12/06 14:04:39;;;;;;;12.27;7.47;;;;;;;;;;10464422;28;20269;-72
2023/12/06 14:09:40;;;;;;;11.17;7.10;;;;;;;;;;10450237;28;20270;-72
2023/12/06 14:14:41;;;;;;;28.27;13.33;;;;;;;;;;10460261;28;20219;-72
2023/12/06 14:19:41;;;;;;;32.30;13.70;;;;;;;;;;10455829;28;20180;-72
2023/12/06 14:24:41;;;;;;;29.53;13.10;;;;;;;;;;10452696;28;20560;-73
2023/12/06 14:29:41;;;;;;;18.30;10.13;;;;;;;;;;10451787;28;20275;-72
2023/12/06 14:34:42;;;;;;;22.67;11.93;;;;;;;;;;10451665;28;20366;-72
2023/12/06 14:39:43;;;;;;;13.77;8.50;;;;;;;;;;10468445;28;20788;-72
2023/12/06 14:44:46;;;;;;;15.07;9.80;;;;;;;;;;10462312;28;20191;-74
2023/12/06 14:49:46;;;;;;;14.30;9.07;;;;;;;;;;10467333;28;20176;-74
2023/12/06 14:54:46;;;;;;;12.10;8.77;;;;;;;;;;10460798;28;20192;-74
2023/12/06 14:59:46;;;;;;;15.73;9.40;;;;;;;;;;10454142;28;20442;-73
2023/12/06 15:04:47;;;;;;;14.63;8.47;;;;;;;;;;10456595;28;20282;-73
2023/12/06 15:09:47;;;;;;;19.40;15.00;;;;;;;;;;10454122;28;20259;-73
2023/12/06 15:14:50;;;;;;;12.63;8.83;;;;;;;;;;10450940;28;20242;-73
2023/12/06 15:19:50;;;;;;;14.43;8.23;;;;;;;;;;10459203;28;20195;-73
2023/12/06 15:24:50;;;;;;;10.17;6.57;;;;;;;;;;10467809;28;20540;-73
2023/12/06 15:29:51;;;;;;;16.13;9.43;;;;;;;;;;10456785;28;20245;-73
2023/12/06 15:34:52;;;;;;;12.60;8.40;;;;;;;;;;10456197;28;20718;-72
2023/12/06 15:39:53;;;;;;;15.63;9.63;;;;;;;;;;10450155;28;20250;-73
2023/12/06 15:44:53;;;;;;;15.40;9.43;;;;;;;;;;10455397;28;20192;-73
2023/12/06 15:49:53;;;;;;;15.87;9.30;;;;;;;;;;10454873;28;20184;-73
2023/12/06 15:54:54;;;;;;;16.77;10.43;;;;;;;;;;10449543;28;20226;-72
2023/12/06 15:59:54;;;;;;;17.33;10.23;;;;;;;;;;10449011;28;20183;-72
2023/12/06 16:04:54;;;;;;;16.90;9.90;;;;;;;;;;10448597;28;20669;-72
2023/12/06 16:09:54;;;;;;;14.87;9.70;;;;;;;;;;10454197;28;20191;-72
2023/12/06 16:14:55;;;;;;;14.90;9.40;;;;;;;;;;10447121;28;20726;-72
2023/12/06 16:19:55;;;;;;;21.33;11.90;;;;;;;;;;10446488;28;20230;-72
2023/12/06 16:24:55;;;;;;;45.00;23.43;;;;;;;;;;10439789;28;20207;-72
2023/12/06 16:29:55;;;;;;;15.50;9.93;;;;;;;;;;10439225;28;20190;-72
2023/12/06 16:34:59;;;;;;;22.80;16.33;;;;;;;;;;10464186;28;20223;-72
2023/12/06 16:39:59;;;;;;;15.37;11.20;;;;;;;;;;10463613;28;20234;-73
2023/12/06 16:45:00;;;;;;;14.93;9.47;;;;;;;;;;10463853;28;20675;-73
2023/12/06 16:50:05;;;;;;;12.77;7.80;;;;;;;;;;10457625;28;20243;-73
2023/12/06 16:55:08;;;;;;;28.40;17.40;;;;;;;;;;10464752;28;20218;-73
2023/12/06 17:00:11;;;;;;;14.23;9.17;;;;;;;;;;10468656;28;20180;-73
2023/12/06 17:05:11;;;;;;;13.40;8.00;;;;;;;;;;10454170;28;20199;-73
2023/12/06 17:10:12;;;;;;;12.07;7.47;;;;;;;;;;10459894;28;20576;-73
2023/12/06 17:15:12;;;;;;;15.43;9.47;;;;;;;;;;10448110;28;20220;-73
2023/12/06 17:20:12;;;;;;;15.00;8.80;;;;;;;;;;10448058;28;20195;-73
2023/12/06 17:25:12;;;;;;;14.33;8.53;;;;;;;;;;10462882;28;20482;-73
2023/12/06 17:30:13;;;;;;;14.07;9.10;;;;;;;;;;10456364;28;20436;-73
2023/12/06 17:35:13;;;;;;;17.37;10.93;;;;;;;;;;10450897;28;21053;-72
2023/12/06 17:40:14;;;;;;;17.30;11.33;;;;;;;;;;10455933;28;20239;-72
2023/12/06 17:45:14;;;;;;;18.67;11.83;;;;;;;;;;10461773;28;20242;-74
2023/12/06 17:50:14;;;;;;;18.13;11.10;;;;;;;;;;10460978;28;20713;-74
2023/12/06 17:55:15;;;;;;;24.40;14.30;;;;;;;;;;10445908;28;20478;-74
2023/12/06 18:00:16;;;;;;;17.73;11.77;;;;;;;;;;10454750;28;20204;-73
2023/12/06 18:05:16;;;;;;;20.83;12.27;;;;;;;;;;10449688;28;20218;-73
2023/12/06 18:10:16;;;;;;;26.13;14.17;;;;;;;;;;10449620;28;20196;-73
2023/12/06 18:15:17;;;;;;;16.92;10.05;;;;;;;;;;10456610;28;20207;-73
2023/12/06 18:20:18;;;;;;;15.77;9.30;;;;;;;;;;10458900;28;20210;-74
2023/12/06 18:25:19;;;;;;;12.57;9.03;;;;;;;;;;10440088;28;20218;-73
2023/12/06 18:30:20;;;;;;;11.37;8.00;;;;;;;;;;10443324;28;20441;-74
2023/12/06 18:35:20;;;;;;;21.03;13.57;;;;;;;;;;10441394;28;20229;-73
2023/12/06 18:40:21;;;;;;;21.17;14.97;;;;;;;;;;10444310;28;20232;-72
2023/12/06 18:45:21;;;;;;;10.55;8.02;;;;;;;;;;10436864;28;20639;-73
2023/12/06 18:50:21;;;;;;;10.00;7.40;;;;;;;;;;10445510;28;20249;-73
2023/12/06 18:55:21;;;;;;;9.60;6.80;;;;;;;;;;10450293;28;20632;-74
2023/12/06 19:00:22;;;;;;;5.50;4.30;;;;;;;;;;10456494;28;20469;-74
2023/12/06 19:05:25;;;;;;;6.20;4.27;;;;;;;;;;10444112;28;20208;-74
2023/12/06 19:10:25;;;;;;;8.37;6.60;;;;;;;;;;10441062;28;20185;-73
2023/12/06 19:15:29;;;;;;;8.87;6.80;;;;;;;;;;10443496;28;20594;-72
2023/12/06 19:20:30;;;;;;;8.93;7.00;;;;;;;;;;10450780;28;20454;-72
2023/12/06 19:25:30;;;;;;;14.40;9.13;;;;;;;;;;10442953;28;20272;-72
2023/12/06 19:30:31;;;;;;;9.47;7.90;;;;;;;;;;10438878;28;20521;-73
2023/12/06 19:35:31;;;;;;;11.23;8.83;;;;;;;;;;10443325;28;20778;-72
2023/12/06 19:40:31;;;;;;;13.88;10.63;;;;;;;;;;10445836;28;20888;-72
2023/12/06 19:45:32;;;;;;;10.93;9.10;;;;;;;;;;10465607;28;20642;-73
2023/12/06 19:50:32;;;;;;;9.93;8.13;;;;;;;;;;10440863;28;20192;-73
2023/12/06 19:55:32;;;;;;;10.80;7.30;;;;;;;;;;10438029;28;21247;-72
2023/12/06 20:00:32;;;;;;;9.13;7.72;;;;;;;;;;10443100;28;20512;-72
2023/12/06 20:05:33;;;;;;;9.13;7.87;;;;;;;;;;10440651;28;20261;-72
2023/12/06 20:10:33;;;;;;;11.57;8.77;;;;;;;;;;10438968;28;20473;-72
2023/12/06 20:15:33;;;;;;;11.53;8.20;;;;;;;;;;10438449;28;20227;-72
2023/12/06 20:20:34;;;;;;;11.63;8.50;;;;;;;;;;10443239;28;20184;-72
2023/12/06 20:25:34;;;;;;;12.03;9.10;;;;;;;;;;10439478;28;20208;-72
2023/12/06 20:30:34;;;;;;;12.87;10.00;;;;;;;;;;10440012;28;20179;-73
2023/12/06 20:35:34;;;;;;;12.40;9.53;;;;;;;;;;10441944;28;20723;-73
2023/12/06 20:40:35;;;;;;;14.40;10.50;;;;;;;;;;10441848;28;20972;-73
2023/12/06 20:45:35;;;;;;;14.93;11.67;;;;;;;;;;10435464;28;20669;-73
2023/12/06 20:50:35;;;;;;;13.07;10.77;;;;;;;;;;10431833;28;20249;-73
2023/12/06 20:55:35;;;;;;;12.67;9.80;;;;;;;;;;10444067;28;20265;-73
2023/12/06 21:00:36;;;;;;;13.87;11.10;;;;;;;;;;10450731;28;20474;-73
2023/12/06 21:05:36;;;;;;;15.53;11.13;;;;;;;;;;10438377;28;20191;-73
2023/12/06 21:10:36;;;;;;;16.73;12.07;;;;;;;;;;10451369;28;20212;-73
2023/12/06 21:15:36;;;;;;;15.57;11.83;;;;;;;;;;10450043;28;20563;-73
2023/12/06 21:20:37;;;;;;;14.60;11.57;;;;;;;;;;10448070;28;20187;-73
2023/12/06 21:25:37;;;;;;;17.57;12.83;;;;;;;;;;10445482;28;20204;-73
2023/12/06 21:30:37;;;;;;;16.10;12.10;;;;;;;;;;10447654;28;20198;-72
2023/12/06 21:35:38;;;;;;;17.43;11.63;;;;;;;;;;10444729;28;20216;-73
2023/12/06 21:40:38;;;;;;;17.37;12.40;;;;;;;;;;10446331;28;20668;-72
2023/12/06 21:45:38;;;;;;;16.83;11.87;;;;;;;;;;10446752;28;20198;-72
2023/12/06 21:50:38;;;;;;;18.03;11.77;;;;;;;;;;10447448;28;20580;-72
2023/12/06 21:55:39;;;;;;;16.57;12.33;;;;;;;;;;10459126;28;20299;-72
2023/12/06 22:00:40;;;;;;;16.50;11.50;;;;;;;;;;10452790;28;20188;-72
2023/12/06 22:05:40;;;;;;;14.10;11.10;;;;;;;;;;10451690;28;20188;-72
2023/12/06 22:10:40;;;;;;;14.57;11.10;;;;;;;;;;10454477;28;20188;-72
2023/12/06 22:15:43;;;;;;;13.60;10.23;;;;;;;;;;10451675;28;20265;-72
2023/12/06 22:20:43;;;;;;;12.97;10.53;;;;;;;;;;10451471;28;20470;-73
2023/12/06 22:25:44;;;;;;;15.43;11.23;;;;;;;;;;10448832;28;20294;-73
2023/12/06 22:30:44;;;;;;;17.63;12.30;;;;;;;;;;10456261;28;20184;-73
2023/12/06 22:35:44;;;;;;;16.07;12.07;;;;;;;;;;10446360;28;20346;-72
2023/12/06 22:40:45;;;;;;;15.57;11.57;;;;;;;;;;10449079;28;20581;-73
2023/12/06 22:45:45;;;;;;;16.03;12.30;;;;;;;;;;10450305;28;20196;-72
2023/12/06 22:50:45;;;;;;;17.17;13.40;;;;;;;;;;10462558;28;20199;-72
2023/12/06 22:55:45;;;;;;;16.97;12.40;;;;;;;;;;10469501;28;20246;-73
2023/12/06 23:06:49;;;;;;;17.07;12.20;;;;;;;;;;10437296;28;20188;-73
2023/12/06 23:11:49;;;;;;;15.30;11.43;;;;;;;;;;10451600;28;20192;-72
2023/12/06 23:16:49;;;;;;;14.07;11.23;;;;;;;;;;10450925;28;20223;-72
2023/12/06 23:21:49;;;;;;;15.23;11.60;;;;;;;;;;10450383;28;20188;-72
2023/12/06 23:26:49;;;;;;;16.33;11.70;;;;;;;;;;10452181;28;20255;-72
2023/12/06 23:31:49;;;;;;;14.67;11.30;;;;;;;;;;10450509;28;20296;-72
2023/12/06 23:36:50;;;;;;;15.57;12.47;;;;;;;;;;10450311;28;20216;-72
2023/12/06 23:41:50;;;;;;;17.80;12.53;;;;;;;;;;10450648;28;20723;-72
2023/12/06 23:46:50;;;;;;;18.83;13.80;;;;;;;;;;10453382;28;20333;-72
2023/12/06 23:51:51;;;;;;;17.33;13.23;;;;;;;;;;10450252;28;20184;-73
2023/12/06 23:56:51;;;;;;;20.57;13.23;;;;;;;;;;10450096;28;20306;-72
